KPGA

Page Municipal Airport

Page, Arizona, USA
METAR KPGA 110153Z AUTO 00000KT 10SM CLR 05/M02 A3023 RMK AO2 SLP242 T00501017 TSNO
Observed Flight Rules
Dec-11 @ 01:53 UTC (32 minutes ago) Visual Flight Rules
Visibility Clouds
10 miles
  • Clear skies
Temperatures Readings
Current 5°C / 41°F
Dewpoint -2°C / 28°F
Humidity 61%
Altimeter 30.23" Hg
Pressure 1024.2 hPa
Elevation 1307
METAR KPGA 110153Z AUTO 00000KT 10SM CLR 05/M02 A3023 RMK AO2 SLP242 T00501017 TSNO
Observed Flight Rules
Dec-11 @ 01:53 UTC
(32 minutes ago)
VFR
Clouds
  • Clear skies
Temperature Dewpoint
5°C / 41°F -2°C / 28°F
Humidity Altimeter Pressure
61% 30.23" Hg 1024.2 hPa